sensor_id;sensor_type;location;lat;lon;timestamp;pressure;altitude;pressure_sealevel;temperature;humidity
51229;BME280;37304;52.216;6.874;2023-06-19T00:04:29;100520.88;;;22.77;84.46
51229;BME280;37304;52.216;6.874;2023-06-19T00:09:29;100523.41;;;22.79;85.43
51229;BME280;37304;52.216;6.874;2023-06-19T00:14:29;100515.47;;;22.79;86.03
51229;BME280;37304;52.216;6.874;2023-06-19T00:19:30;100511.13;;;22.78;87.22
51229;BME280;37304;52.216;6.874;2023-06-19T00:24:30;100509.44;;;22.77;87.41
51229;BME280;37304;52.216;6.874;2023-06-19T00:29:31;100504.25;;;22.75;88.76
51229;BME280;37304;52.216;6.874;2023-06-19T00:34:32;100496.66;;;22.71;89.67
51229;BME280;37304;52.216;6.874;2023-06-19T00:39:32;100495.91;;;22.68;90.75
51229;BME280;37304;52.216;6.874;2023-06-19T00:44:33;100498.78;;;22.65;91.85
51229;BME280;37304;52.216;6.874;2023-06-19T00:49:36;100515.13;;;22.59;93.00
51229;BME280;37304;52.216;6.874;2023-06-19T00:54:36;100516.63;;;22.50;94.51
51229;BME280;37304;52.216;6.874;2023-06-19T00:59:37;100524.16;;;22.44;95.88
51229;BME280;37304;52.216;6.874;2023-06-19T01:04:38;100521.63;;;22.42;96.44
51229;BME280;37304;52.216;6.874;2023-06-19T01:10:02;100528.22;;;22.36;98.39
51229;BME280;37304;52.216;6.874;2023-06-19T01:15:05;100529.69;;;22.40;99.94
51229;BME280;37304;52.216;6.874;2023-06-19T01:20:08;100530.97;;;22.48;100.00
51229;BME280;37304;52.216;6.874;2023-06-19T01:25:11;100533.91;;;22.56;100.00
51229;BME280;37304;52.216;6.874;2023-06-19T01:30:13;100525.63;;;22.61;100.00
51229;BME280;37304;52.216;6.874;2023-06-19T01:35:17;100533.34;;;22.64;100.00
51229;BME280;37304;52.216;6.874;2023-06-19T01:40:19;100535.03;;;22.65;100.00
51229;BME280;37304;52.216;6.874;2023-06-19T01:45:27;100538.53;;;22.65;100.00
51229;BME280;37304;52.216;6.874;2023-06-19T01:50:28;100541.28;;;22.64;100.00
51229;BME280;37304;52.216;6.874;2023-06-19T01:55:29;100543.31;;;22.60;100.00
51229;BME280;37304;52.216;6.874;2023-06-19T02:00:29;100536.75;;;22.53;100.00
51229;BME280;37304;52.216;6.874;2023-06-19T02:05:31;100543.25;;;22.49;100.00
51229;BME280;37304;52.216;6.874;2023-06-19T02:10:32;100541.97;;;22.42;100.00
51229;BME280;37304;52.216;6.874;2023-06-19T02:15:32;100546.00;;;22.34;100.00
51229;BME280;37304;52.216;6.874;2023-06-19T02:20:33;100549.41;;;22.23;100.00
51229;BME280;37304;52.216;6.874;2023-06-19T02:25:34;100547.63;;;22.11;100.00
51229;BME280;37304;52.216;6.874;2023-06-19T02:30:35;100550.06;;;22.01;100.00
51229;BME280;37304;52.216;6.874;2023-06-19T02:35:35;100558.78;;;21.90;100.00
51229;BME280;37304;52.216;6.874;2023-06-19T02:40:36;100553.78;;;21.86;100.00
51229;BME280;37304;52.216;6.874;2023-06-19T02:45:36;100554.72;;;21.72;100.00
51229;BME280;37304;52.216;6.874;2023-06-19T02:50:36;100565.72;;;21.65;100.00
51229;BME280;37304;52.216;6.874;2023-06-19T02:55:37;100569.16;;;21.53;100.00
51229;BME280;37304;52.216;6.874;2023-06-19T03:00:37;100565.53;;;21.41;100.00
51229;BME280;37304;52.216;6.874;2023-06-19T03:05:38;100574.09;;;21.32;100.00
51229;BME280;37304;52.216;6.874;2023-06-19T03:10:38;100579.59;;;21.29;100.00
51229;BME280;37304;52.216;6.874;2023-06-19T03:15:39;100579.25;;;21.20;100.00
51229;BME280;37304;52.216;6.874;2023-06-19T03:20:39;100584.63;;;21.19;100.00
51229;BME280;37304;52.216;6.874;2023-06-19T03:25:40;100584.19;;;21.12;100.00
51229;BME280;37304;52.216;6.874;2023-06-19T03:30:42;100598.00;;;21.03;100.00
51229;BME280;37304;52.216;6.874;2023-06-19T03:35:43;100604.25;;;21.02;100.00
51229;BME280;37304;52.216;6.874;2023-06-19T03:40:43;100606.88;;;21.02;100.00
51229;BME280;37304;52.216;6.874;2023-06-19T03:45:43;100601.88;;;20.97;100.00
51229;BME280;37304;52.216;6.874;2023-06-19T03:50:44;100603.78;;;20.95;100.00
51229;BME280;37304;52.216;6.874;2023-06-19T03:55:45;100609.38;;;20.90;100.00
51229;BME280;37304;52.216;6.874;2023-06-19T04:00:45;100614.00;;;20.87;100.00
51229;BME280;37304;52.216;6.874;2023-06-19T04:05:46;100612.00;;;20.76;100.00
51229;BME280;37304;52.216;6.874;2023-06-19T04:10:46;100621.44;;;20.80;100.00
51229;BME280;37304;52.216;6.874;2023-06-19T04:15:47;100620.50;;;20.81;100.00
51229;BME280;37304;52.216;6.874;2023-06-19T04:20:48;100632.13;;;20.64;100.00
51229;BME280;37304;52.216;6.874;2023-06-19T04:25:48;100643.50;;;20.64;100.00
51229;BME280;37304;52.216;6.874;2023-06-19T04:30:49;100648.81;;;20.50;100.00
51229;BME280;37304;52.216;6.874;2023-06-19T04:35:49;100657.28;;;20.41;100.00
51229;BME280;37304;52.216;6.874;2023-06-19T04:40:52;100665.41;;;20.37;100.00
51229;BME280;37304;52.216;6.874;2023-06-19T04:45:53;100677.97;;;20.18;100.00
51229;BME280;37304;52.216;6.874;2023-06-19T04:50:55;100681.38;;;20.20;100.00
51229;BME280;37304;52.216;6.874;2023-06-19T04:55:56;100686.56;;;20.21;100.00
51229;BME280;37304;52.216;6.874;2023-06-19T05:00:56;100701.91;;;20.15;100.00
51229;BME280;37304;52.216;6.874;2023-06-19T05:05:56;100704.75;;;20.12;100.00
51229;BME280;37304;52.216;6.874;2023-06-19T05:10:58;100702.03;;;20.13;100.00
51229;BME280;37304;52.216;6.874;2023-06-19T05:15:58;100711.84;;;20.40;100.00
51229;BME280;37304;52.216;6.874;2023-06-19T05:20:59;100721.75;;;20.36;100.00
51229;BME280;37304;52.216;6.874;2023-06-19T05:25:59;100729.31;;;20.43;100.00
51229;BME280;37304;52.216;6.874;2023-06-19T05:30:59;100727.78;;;20.24;100.00
51229;BME280;37304;52.216;6.874;2023-06-19T05:36:00;100728.88;;;20.20;100.00
51229;BME280;37304;52.216;6.874;2023-06-19T05:41:02;100724.41;;;20.36;100.00
51229;BME280;37304;52.216;6.874;2023-06-19T05:46:02;100725.91;;;20.41;100.00
51229;BME280;37304;52.216;6.874;2023-06-19T05:51:03;100734.28;;;20.47;100.00
51229;BME280;37304;52.216;6.874;2023-06-19T05:56:03;100728.38;;;20.73;100.00
51229;BME280;37304;52.216;6.874;2023-06-19T06:01:04;100741.69;;;20.71;100.00
51229;BME280;37304;52.216;6.874;2023-06-19T06:06:04;100746.66;;;20.76;100.00
51229;BME280;37304;52.216;6.874;2023-06-19T06:11:05;100752.47;;;20.83;100.00
51229;BME280;37304;52.216;6.874;2023-06-19T06:16:05;100759.69;;;20.64;100.00
51229;BME280;37304;52.216;6.874;2023-06-19T06:21:05;100764.81;;;20.82;100.00
51229;BME280;37304;52.216;6.874;2023-06-19T06:26:06;100767.16;;;20.72;100.00
51229;BME280;37304;52.216;6.874;2023-06-19T06:31:06;100778.19;;;20.79;100.00
51229;BME280;37304;52.216;6.874;2023-06-19T06:36:07;100780.13;;;20.91;100.00
51229;BME280;37304;52.216;6.874;2023-06-19T06:41:07;100772.09;;;20.93;100.00
51229;BME280;37304;52.216;6.874;2023-06-19T06:46:09;100777.66;;;21.03;100.00
51229;BME280;37304;52.216;6.874;2023-06-19T06:51:10;100786.78;;;21.41;100.00
51229;BME280;37304;52.216;6.874;2023-06-19T06:56:10;100789.50;;;21.39;100.00
51229;BME280;37304;52.216;6.874;2023-06-19T07:01:11;100793.22;;;21.78;100.00
51229;BME280;37304;52.216;6.874;2023-06-19T07:06:11;100787.97;;;21.64;100.00
51229;BME280;37304;52.216;6.874;2023-06-19T07:11:12;100795.94;;;22.45;100.00
51229;BME280;37304;52.216;6.874;2023-06-19T07:16:12;100797.63;;;22.05;100.00
51229;BME280;37304;52.216;6.874;2023-06-19T07:21:14;100810.00;;;22.32;100.00
51229;BME280;37304;52.216;6.874;2023-06-19T07:26:15;100821.53;;;22.31;100.00
51229;BME280;37304;52.216;6.874;2023-06-19T07:31:15;100825.41;;;22.53;100.00
51229;BME280;37304;52.216;6.874;2023-06-19T07:36:15;100829.31;;;22.07;100.00
51229;BME280;37304;52.216;6.874;2023-06-19T07:41:16;100826.63;;;22.34;100.00
51229;BME280;37304;52.216;6.874;2023-06-19T07:46:16;100828.47;;;22.47;100.00
51229;BME280;37304;52.216;6.874;2023-06-19T07:51:17;100834.28;;;22.11;100.00
51229;BME280;37304;52.216;6.874;2023-06-19T07:56:17;100837.31;;;22.33;100.00
51229;BME280;37304;52.216;6.874;2023-06-19T08:01:18;100843.31;;;22.49;100.00
51229;BME280;37304;52.216;6.874;2023-06-19T08:06:18;100841.97;;;22.29;100.00
51229;BME280;37304;52.216;6.874;2023-06-19T08:11:18;100852.84;;;22.24;100.00
51229;BME280;37304;52.216;6.874;2023-06-19T08:16:19;100851.56;;;21.90;100.00
51229;BME280;37304;52.216;6.874;2023-06-19T08:21:19;100863.53;;;21.68;100.00
51229;BME280;37304;52.216;6.874;2023-06-19T08:26:21;100861.50;;;22.14;100.00
51229;BME280;37304;52.216;6.874;2023-06-19T08:31:22;100871.03;;;22.44;100.00
51229;BME280;37304;52.216;6.874;2023-06-19T08:36:27;100862.22;;;22.43;100.00
51229;BME280;37304;52.216;6.874;2023-06-19T08:41:27;100876.66;;;22.92;100.00
51229;BME280;37304;52.216;6.874;2023-06-19T08:46:29;100880.75;;;23.09;100.00
51229;BME280;37304;52.216;6.874;2023-06-19T08:51:29;100871.69;;;23.26;100.00
51229;BME280;37304;52.216;6.874;2023-06-19T08:56:31;100875.56;;;22.82;100.00
51229;BME280;37304;52.216;6.874;2023-06-19T09:01:34;100877.50;;;23.06;100.00
51229;BME280;37304;52.216;6.874;2023-06-19T09:06:35;100871.03;;;23.10;100.00
51229;BME280;37304;52.216;6.874;2023-06-19T09:11:38;100876.66;;;23.31;100.00
51229;BME280;37304;52.216;6.874;2023-06-19T09:16:43;100885.22;;;23.48;100.00
51229;BME280;37304;52.216;6.874;2023-06-19T09:21:43;100896.13;;;23.56;100.00
51229;BME280;37304;52.216;6.874;2023-06-19T09:26:44;100892.09;;;24.49;100.00
51229;BME280;37304;52.216;6.874;2023-06-19T09:31:44;100895.44;;;24.16;100.00
51229;BME280;37304;52.216;6.874;2023-06-19T09:36:46;100883.88;;;24.77;100.00
51229;BME280;37304;52.216;6.874;2023-06-19T09:41:49;100877.47;;;26.37;100.00
51229;BME280;37304;52.216;6.874;2023-06-19T09:46:52;100886.22;;;25.72;100.00
51229;BME280;37304;52.216;6.874;2023-06-19T09:51:54;100906.03;;;25.11;100.00
51229;BME280;37304;52.216;6.874;2023-06-19T09:56:56;100903.78;;;24.71;100.00
51229;BME280;37304;52.216;6.874;2023-06-19T10:01:59;100913.19;;;25.45;100.00
51229;BME280;37304;52.216;6.874;2023-06-19T10:07:35;100917.03;;;26.21;100.00
51229;BME280;37304;52.216;6.874;2023-06-19T10:12:46;100920.53;;;26.75;100.00
51229;BME280;37304;52.216;6.874;2023-06-19T10:18:00;100918.72;;;25.99;100.00
51229;BME280;37304;52.216;6.874;2023-06-19T10:23:11;100923.88;;;27.10;100.00
51229;BME280;37304;52.216;6.874;2023-06-19T10:28:26;100932.44;;;28.66;92.01
51229;BME280;37304;52.216;6.874;2023-06-19T10:33:29;100933.84;;;29.37;85.67
51229;BME280;37304;52.216;6.874;2023-06-19T10:38:32;100932.16;;;29.74;81.36
51229;BME280;37304;52.216;6.874;2023-06-19T10:43:33;100936.34;;;29.39;75.21
51229;BME280;37304;52.216;6.874;2023-06-19T10:48:34;100934.72;;;29.66;73.37
51229;BME280;37304;52.216;6.874;2023-06-19T10:53:38;100927.13;;;30.79;67.91
51229;BME280;37304;52.216;6.874;2023-06-19T10:58:39;100928.78;;;28.67;69.21
51229;BME280;37304;52.216;6.874;2023-06-19T11:03:41;100915.06;;;30.39;66.88
51229;BME280;37304;52.216;6.874;2023-06-19T11:08:51;100920.84;;;31.15;61.16
51229;BME280;37304;52.216;6.874;2023-06-19T11:13:52;100917.72;;;29.85;64.47
51229;BME280;37304;52.216;6.874;2023-06-19T11:18:57;100920.50;;;30.11;62.83
51229;BME280;37304;52.216;6.874;2023-06-19T11:23:58;100928.41;;;30.67;61.43
51229;BME280;37304;52.216;6.874;2023-06-19T11:29:00;100914.03;;;31.29;60.39
51229;BME280;37304;52.216;6.874;2023-06-19T11:34:01;100913.63;;;30.63;61.01
51229;BME280;37304;52.216;6.874;2023-06-19T11:39:09;100910.59;;;30.48;60.14
51229;BME280;37304;52.216;6.874;2023-06-19T11:44:10;100907.78;;;30.49;60.00
51229;BME280;37304;52.216;6.874;2023-06-19T11:49:15;100911.78;;;30.63;59.69
51229;BME280;37304;52.216;6.874;2023-06-19T11:54:21;100911.69;;;30.55;59.84
51229;BME280;37304;52.216;6.874;2023-06-19T11:59:22;100921.03;;;28.83;64.61
51229;BME280;37304;52.216;6.874;2023-06-19T12:04:22;100914.63;;;30.07;61.38
51229;BME280;37304;52.216;6.874;2023-06-19T12:09:22;100903.88;;;30.44;62.15
51229;BME280;37304;52.216;6.874;2023-06-19T12:14:23;100911.09;;;30.43;61.90
51229;BME280;37304;52.216;6.874;2023-06-19T12:19:26;100915.06;;;30.57;59.19
51229;BME280;37304;52.216;6.874;2023-06-19T12:24:27;100903.22;;;30.24;59.35
51229;BME280;37304;52.216;6.874;2023-06-19T12:29:28;100913.34;;;30.74;56.38
51229;BME280;37304;52.216;6.874;2023-06-19T12:34:29;100904.94;;;31.22;53.72
51229;BME280;37304;52.216;6.874;2023-06-19T12:39:31;100908.13;;;32.28;52.16
51229;BME280;37304;52.216;6.874;2023-06-19T12:44:32;100918.81;;;31.44;50.47
51229;BME280;37304;52.216;6.874;2023-06-19T12:49:33;100916.50;;;31.49;48.91
51229;BME280;37304;52.216;6.874;2023-06-19T12:54:34;100925.16;;;31.34;51.09
51229;BME280;37304;52.216;6.874;2023-06-19T12:59:35;100929.97;;;31.22;49.58
51229;BME280;37304;52.216;6.874;2023-06-19T13:04:35;100914.22;;;31.71;48.77
51229;BME280;37304;52.216;6.874;2023-06-19T13:09:36;100915.41;;;31.76;46.88
51229;BME280;37304;52.216;6.874;2023-06-19T13:14:36;100913.03;;;32.41;46.85
51229;BME280;37304;52.216;6.874;2023-06-19T13:19:37;100922.44;;;32.53;46.49
51229;BME280;37304;52.216;6.874;2023-06-19T13:24:38;100920.06;;;32.25;48.00
51229;BME280;37304;52.216;6.874;2023-06-19T13:29:38;100914.66;;;32.75;46.09
51229;BME280;37304;52.216;6.874;2023-06-19T13:34:40;100928.13;;;32.75;46.74
51229;BME280;37304;52.216;6.874;2023-06-19T13:39:41;100927.16;;;31.32;49.24
51229;BME280;37304;52.216;6.874;2023-06-19T13:44:41;100915.31;;;32.11;47.86
51229;BME280;37304;52.216;6.874;2023-06-19T13:49:41;100912.63;;;31.17;47.42
51229;BME280;37304;52.216;6.874;2023-06-19T13:54:42;100896.00;;;30.60;48.34
51229;BME280;37304;52.216;6.874;2023-06-19T13:59:42;100897.16;;;31.96;45.70
51229;BME280;37304;52.216;6.874;2023-06-19T14:04:43;100899.53;;;32.08;45.81
51229;BME280;37304;52.216;6.874;2023-06-19T14:09:43;100889.03;;;31.72;45.76
51229;BME280;37304;52.216;6.874;2023-06-19T14:14:44;100897.91;;;31.21;46.22
51229;BME280;37304;52.216;6.874;2023-06-19T14:19:44;100902.09;;;31.58;50.05
51229;BME280;37304;52.216;6.874;2023-06-19T14:24:44;100914.00;;;31.56;51.15
51229;BME280;37304;52.216;6.874;2023-06-19T14:29:45;100905.03;;;31.38;49.99
51229;BME280;37304;52.216;6.874;2023-06-19T14:34:45;100897.06;;;31.55;45.69
51229;BME280;37304;52.216;6.874;2023-06-19T14:39:46;100898.22;;;30.91;49.00
51229;BME280;37304;52.216;6.874;2023-06-19T14:44:46;100901.13;;;30.98;49.57
51229;BME280;37304;52.216;6.874;2023-06-19T14:49:47;100899.63;;;31.04;50.39
51229;BME280;37304;52.216;6.874;2023-06-19T14:54:47;100892.59;;;31.11;49.61
51229;BME280;37304;52.216;6.874;2023-06-19T14:59:48;100889.38;;;30.73;49.71
51229;BME280;37304;52.216;6.874;2023-06-19T15:04:48;100887.47;;;30.65;51.06
51229;BME280;37304;52.216;6.874;2023-06-19T15:09:51;100892.41;;;30.33;50.91
51229;BME280;37304;52.216;6.874;2023-06-19T15:14:52;100894.34;;;29.77;53.33
51229;BME280;37304;52.216;6.874;2023-06-19T15:19:52;100897.25;;;29.66;53.86
51229;BME280;37304;52.216;6.874;2023-06-19T15:24:54;100886.53;;;30.30;51.51
51229;BME280;37304;52.216;6.874;2023-06-19T15:29:54;100890.19;;;28.69;52.73
51229;BME280;37304;52.216;6.874;2023-06-19T15:34:55;100880.81;;;29.50;52.26
51229;BME280;37304;52.216;6.874;2023-06-19T15:39:55;100885.00;;;29.81;51.76
51229;BME280;37304;52.216;6.874;2023-06-19T15:44:56;100884.38;;;29.51;51.33
51229;BME280;37304;52.216;6.874;2023-06-19T15:49:58;100882.91;;;30.03;51.51
51229;BME280;37304;52.216;6.874;2023-06-19T15:54:58;100876.94;;;29.63;53.29
51229;BME280;37304;52.216;6.874;2023-06-19T15:59:59;100884.00;;;29.64;53.17
51229;BME280;37304;52.216;6.874;2023-06-19T16:04:59;100882.13;;;29.36;52.86
51229;BME280;37304;52.216;6.874;2023-06-19T16:10:01;100879.09;;;28.74;54.78
51229;BME280;37304;52.216;6.874;2023-06-19T16:15:01;100882.63;;;28.65;55.11
51229;BME280;37304;52.216;6.874;2023-06-19T16:20:02;100875.25;;;28.76;54.36
51229;BME280;37304;52.216;6.874;2023-06-19T16:25:02;100870.44;;;28.23;56.21
51229;BME280;37304;52.216;6.874;2023-06-19T16:30:06;100863.53;;;28.30;55.35
51229;BME280;37304;52.216;6.874;2023-06-19T16:35:07;100868.84;;;28.00;56.82
51229;BME280;37304;52.216;6.874;2023-06-19T16:40:08;100875.59;;;28.04;55.58
51229;BME280;37304;52.216;6.874;2023-06-19T16:45:09;100878.13;;;27.96;56.03
51229;BME280;37304;52.216;6.874;2023-06-19T16:50:11;100873.31;;;28.00;55.48
51229;BME280;37304;52.216;6.874;2023-06-19T16:55:11;100876.97;;;27.99;55.47
51229;BME280;37304;52.216;6.874;2023-06-19T17:00:12;100878.91;;;27.77;56.27
51229;BME280;37304;52.216;6.874;2023-06-19T17:05:15;100871.91;;;27.35;58.25
51229;BME280;37304;52.216;6.874;2023-06-19T17:10:18;100875.38;;;27.36;57.87
51229;BME280;37304;52.216;6.874;2023-06-19T17:15:19;100889.31;;;27.08;58.76
51229;BME280;37304;52.216;6.874;2023-06-19T17:20:19;100881.72;;;27.03;57.96
51229;BME280;37304;52.216;6.874;2023-06-19T17:25:20;100879.59;;;26.97;57.71
51229;BME280;37304;52.216;6.874;2023-06-19T17:30:20;100881.59;;;26.84;58.01
51229;BME280;37304;52.216;6.874;2023-06-19T17:35:20;100892.75;;;26.78;58.90
51229;BME280;37304;52.216;6.874;2023-06-19T17:45:54;100896.47;;;26.65;59.40
51229;BME280;37304;52.216;6.874;2023-06-19T17:50:55;100889.94;;;26.37;59.96
51229;BME280;37304;52.216;6.874;2023-06-19T17:55:58;100883.69;;;26.26;61.54
51229;BME280;37304;52.216;6.874;2023-06-19T18:01:07;100883.59;;;26.16;62.36
51229;BME280;37304;52.216;6.874;2023-06-19T18:06:09;100887.47;;;26.12;62.38
51229;BME280;37304;52.216;6.874;2023-06-19T18:11:18;100889.84;;;25.94;63.72
51229;BME280;37304;52.216;6.874;2023-06-19T18:16:24;100898.56;;;25.73;64.88
51229;BME280;37304;52.216;6.874;2023-06-19T18:21:30;100897.03;;;25.59;66.40
51229;BME280;37304;52.216;6.874;2023-06-19T18:26:42;100898.09;;;25.34;71.83
51229;BME280;37304;52.216;6.874;2023-06-19T18:31:43;100896.50;;;25.09;76.51
51229;BME280;37304;52.216;6.874;2023-06-19T18:36:43;100901.09;;;24.95;79.46
51229;BME280;37304;52.216;6.874;2023-06-19T18:41:50;100904.59;;;24.71;82.98
51229;BME280;37304;52.216;6.874;2023-06-19T18:46:55;100906.03;;;24.64;85.01
51229;BME280;37304;52.216;6.874;2023-06-19T18:52:01;100896.97;;;24.55;87.16
51229;BME280;37304;52.216;6.874;2023-06-19T18:57:07;100906.78;;;24.42;89.82
51229;BME280;37304;52.216;6.874;2023-06-19T19:02:09;100913.03;;;24.29;90.68
51229;BME280;37304;52.216;6.874;2023-06-19T19:12:51;100914.63;;;24.08;94.76
51229;BME280;37304;52.216;6.874;2023-06-19T19:17:51;100922.91;;;24.03;96.03
51229;BME280;37304;52.216;6.874;2023-06-19T19:22:54;100924.28;;;23.96;97.57
51229;BME280;37304;52.216;6.874;2023-06-19T19:27:55;100929.72;;;23.81;100.00
51229;BME280;37304;52.216;6.874;2023-06-19T19:32:55;100931.06;;;23.63;100.00
51229;BME280;37304;52.216;6.874;2023-06-19T19:37:56;100938.06;;;23.51;100.00
51229;BME280;37304;52.216;6.874;2023-06-19T19:42:56;100946.97;;;23.37;100.00
51229;BME280;37304;52.216;6.874;2023-06-19T19:47:57;100942.75;;;23.34;100.00
51229;BME280;37304;52.216;6.874;2023-06-19T19:52:57;100944.34;;;23.24;100.00
51229;BME280;37304;52.216;6.874;2023-06-19T19:57:57;100964.84;;;23.07;100.00
51229;BME280;37304;52.216;6.874;2023-06-19T20:03:00;100966.34;;;22.98;100.00
51229;BME280;37304;52.216;6.874;2023-06-19T20:08:01;100967.59;;;22.93;100.00
51229;BME280;37304;52.216;6.874;2023-06-19T20:13:01;100963.94;;;22.81;100.00
51229;BME280;37304;52.216;6.874;2023-06-19T20:18:02;100974.94;;;22.75;100.00
51229;BME280;37304;52.216;6.874;2023-06-19T20:23:02;100977.66;;;22.60;100.00
51229;BME280;37304;52.216;6.874;2023-06-19T20:28:03;100976.47;;;22.51;100.00
51229;BME280;37304;52.216;6.874;2023-06-19T20:33:03;100970.69;;;22.45;100.00
51229;BME280;37304;52.216;6.874;2023-06-19T20:38:03;100971.31;;;22.35;100.00
51229;BME280;37304;52.216;6.874;2023-06-19T20:43:04;100967.63;;;22.23;100.00
51229;BME280;37304;52.216;6.874;2023-06-19T20:48:04;100966.59;;;22.11;100.00
51229;BME280;37304;52.216;6.874;2023-06-19T20:53:05;100976.09;;;22.01;100.00
51229;BME280;37304;52.216;6.874;2023-06-19T20:58:07;100975.91;;;21.90;100.00
51229;BME280;37304;52.216;6.874;2023-06-19T21:03:08;100983.00;;;21.89;100.00
51229;BME280;37304;52.216;6.874;2023-06-19T21:08:10;100988.59;;;21.70;100.00
51229;BME280;37304;52.216;6.874;2023-06-19T21:13:11;100996.41;;;21.72;100.00
51229;BME280;37304;52.216;6.874;2023-06-19T21:18:12;100991.78;;;21.61;100.00
51229;BME280;37304;52.216;6.874;2023-06-19T21:23:15;100996.44;;;21.41;100.00
51229;BME280;37304;52.216;6.874;2023-06-19T21:28:15;101004.75;;;21.35;100.00
51229;BME280;37304;52.216;6.874;2023-06-19T21:33:16;101003.41;;;21.28;100.00
51229;BME280;37304;52.216;6.874;2023-06-19T21:38:16;101007.31;;;21.22;100.00
51229;BME280;37304;52.216;6.874;2023-06-19T21:43:16;101002.53;;;21.13;100.00
51229;BME280;37304;52.216;6.874;2023-06-19T21:48:17;101003.06;;;21.03;100.00
51229;BME280;37304;52.216;6.874;2023-06-19T21:53:17;101006.66;;;21.02;100.00
51229;BME280;37304;52.216;6.874;2023-06-19T21:58:18;101007.31;;;20.91;100.00
51229;BME280;37304;52.216;6.874;2023-06-19T22:03:21;100995.53;;;20.81;100.00
51229;BME280;37304;52.216;6.874;2023-06-19T22:08:22;100989.56;;;20.77;100.00
51229;BME280;37304;52.216;6.874;2023-06-19T22:13:22;100985.75;;;20.67;100.00
51229;BME280;37304;52.216;6.874;2023-06-19T22:18:23;100980.81;;;20.61;100.00
51229;BME280;37304;52.216;6.874;2023-06-19T22:23:25;100974.84;;;20.57;100.00
51229;BME280;37304;52.216;6.874;2023-06-19T22:28:26;100966.59;;;20.47;100.00
51229;BME280;37304;52.216;6.874;2023-06-19T22:33:27;100967.63;;;20.45;100.00
51229;BME280;37304;52.216;6.874;2023-06-19T22:38:27;100968.06;;;20.37;100.00
51229;BME280;37304;52.216;6.874;2023-06-19T22:43:28;100972.56;;;20.35;100.00
51229;BME280;37304;52.216;6.874;2023-06-19T22:48:28;100973.00;;;20.27;100.00
51229;BME280;37304;52.216;6.874;2023-06-19T22:53:29;100963.47;;;20.25;100.00
51229;BME280;37304;52.216;6.874;2023-06-19T22:58:29;100967.22;;;20.20;100.00
51229;BME280;37304;52.216;6.874;2023-06-19T23:03:29;100967.47;;;20.16;100.00
51229;BME280;37304;52.216;6.874;2023-06-19T23:08:30;100964.81;;;20.16;100.00
51229;BME280;37304;52.216;6.874;2023-06-19T23:13:30;100967.03;;;20.07;100.00
51229;BME280;37304;52.216;6.874;2023-06-19T23:18:31;100964.38;;;20.07;100.00
51229;BME280;37304;52.216;6.874;2023-06-19T23:23:32;100970.94;;;20.00;100.00
51229;BME280;37304;52.216;6.874;2023-06-19T23:28:32;100972.97;;;19.95;100.00
51229;BME280;37304;52.216;6.874;2023-06-19T23:33:32;100963.59;;;19.89;100.00
51229;BME280;37304;52.216;6.874;2023-06-19T23:38:33;100958.63;;;19.83;100.00
51229;BME280;37304;52.216;6.874;2023-06-19T23:43:34;100950.81;;;19.82;100.00
51229;BME280;37304;52.216;6.874;2023-06-19T23:48:34;100956.25;;;19.78;100.00
51229;BME280;37304;52.216;6.874;2023-06-19T23:53:35;100950.38;;;19.73;100.00
51229;BME280;37304;52.216;6.874;2023-06-19T23:58:35;100953.94;;;19.72;100.00
